sensor_id;sensor_type;location;lat;lon;timestamp;temperature;humidity
62424;DHT22;48463;43.604;3.872;2023-07-29T00:01:43;23.40;99.90
62424;DHT22;48463;43.604;3.872;2023-07-29T00:04:11;23.40;99.90
62424;DHT22;48463;43.604;3.872;2023-07-29T00:06:38;23.40;99.90
62424;DHT22;48463;43.604;3.872;2023-07-29T00:09:03;23.40;99.90
62424;DHT22;48463;43.604;3.872;2023-07-29T00:11:29;23.30;99.90
62424;DHT22;48463;43.604;3.872;2023-07-29T00:13:55;23.30;99.90
62424;DHT22;48463;43.604;3.872;2023-07-29T00:16:21;23.30;99.90
62424;DHT22;48463;43.604;3.872;2023-07-29T00:18:48;23.20;99.90
62424;DHT22;48463;43.604;3.872;2023-07-29T00:21:14;23.20;99.90
62424;DHT22;48463;43.604;3.872;2023-07-29T00:23:39;23.30;99.90
62424;DHT22;48463;43.604;3.872;2023-07-29T00:26:05;23.30;99.90
62424;DHT22;48463;43.604;3.872;2023-07-29T00:28:31;23.30;99.90
62424;DHT22;48463;43.604;3.872;2023-07-29T00:30:58;23.20;99.90
62424;DHT22;48463;43.604;3.872;2023-07-29T00:33:24;23.20;99.90
62424;DHT22;48463;43.604;3.872;2023-07-29T00:35:49;23.20;99.90
62424;DHT22;48463;43.604;3.872;2023-07-29T00:38:15;23.10;99.90
62424;DHT22;48463;43.604;3.872;2023-07-29T00:40:41;23.10;99.90
62424;DHT22;48463;43.604;3.872;2023-07-29T00:43:08;23.10;99.90
62424;DHT22;48463;43.604;3.872;2023-07-29T00:45:34;23.10;99.90
62424;DHT22;48463;43.604;3.872;2023-07-29T00:48:00;23.00;99.90
62424;DHT22;48463;43.604;3.872;2023-07-29T00:50:27;23.00;99.90
62424;DHT22;48463;43.604;3.872;2023-07-29T00:52:54;23.00;99.90
62424;DHT22;48463;43.604;3.872;2023-07-29T00:55:20;23.00;99.90
62424;DHT22;48463;43.604;3.872;2023-07-29T00:57:46;23.00;99.90
62424;DHT22;48463;43.604;3.872;2023-07-29T01:00:15;23.00;99.90
62424;DHT22;48463;43.604;3.872;2023-07-29T01:02:42;22.90;99.90
62424;DHT22;48463;43.604;3.872;2023-07-29T01:05:08;22.80;99.90
62424;DHT22;48463;43.604;3.872;2023-07-29T01:07:40;22.70;99.90
62424;DHT22;48463;43.604;3.872;2023-07-29T01:16:00;22.70;99.90
62424;DHT22;48463;43.604;3.872;2023-07-29T01:18:29;22.60;99.90
62424;DHT22;48463;43.604;3.872;2023-07-29T01:20:59;22.60;99.90
62424;DHT22;48463;43.604;3.872;2023-07-29T01:23:32;22.60;99.90
62424;DHT22;48463;43.604;3.872;2023-07-29T01:25:59;22.50;99.90
62424;DHT22;48463;43.604;3.872;2023-07-29T01:28:25;22.50;99.90
62424;DHT22;48463;43.604;3.872;2023-07-29T01:31:02;22.40;99.90
62424;DHT22;48463;43.604;3.872;2023-07-29T01:34:02;22.50;99.90
62424;DHT22;48463;43.604;3.872;2023-07-29T01:36:28;22.40;99.90
62424;DHT22;48463;43.604;3.872;2023-07-29T01:38:56;22.40;99.90
62424;DHT22;48463;43.604;3.872;2023-07-29T01:41:23;22.30;99.90
62424;DHT22;48463;43.604;3.872;2023-07-29T01:43:50;22.40;99.90
62424;DHT22;48463;43.604;3.872;2023-07-29T01:46:16;22.40;99.90
62424;DHT22;48463;43.604;3.872;2023-07-29T01:48:44;22.40;99.90
62424;DHT22;48463;43.604;3.872;2023-07-29T01:51:12;22.40;99.90
62424;DHT22;48463;43.604;3.872;2023-07-29T01:53:38;22.30;99.90
62424;DHT22;48463;43.604;3.872;2023-07-29T01:56:03;22.30;99.90
62424;DHT22;48463;43.604;3.872;2023-07-29T01:58:29;22.30;99.90
62424;DHT22;48463;43.604;3.872;2023-07-29T02:00:54;22.30;99.90
62424;DHT22;48463;43.604;3.872;2023-07-29T02:03:20;22.30;99.90
62424;DHT22;48463;43.604;3.872;2023-07-29T02:05:46;22.30;99.90
62424;DHT22;48463;43.604;3.872;2023-07-29T02:08:11;22.40;99.90
62424;DHT22;48463;43.604;3.872;2023-07-29T02:10:37;22.50;99.90
62424;DHT22;48463;43.604;3.872;2023-07-29T02:13:03;22.80;99.90
62424;DHT22;48463;43.604;3.872;2023-07-29T02:15:29;22.90;99.90
62424;DHT22;48463;43.604;3.872;2023-07-29T02:17:55;23.00;99.90
62424;DHT22;48463;43.604;3.872;2023-07-29T02:20:21;23.00;99.90
62424;DHT22;48463;43.604;3.872;2023-07-29T02:22:46;22.70;99.90
62424;DHT22;48463;43.604;3.872;2023-07-29T02:25:14;22.60;99.90
62424;DHT22;48463;43.604;3.872;2023-07-29T02:27:39;22.70;99.90
62424;DHT22;48463;43.604;3.872;2023-07-29T02:30:05;22.90;99.90
62424;DHT22;48463;43.604;3.872;2023-07-29T02:32:31;23.10;99.90
62424;DHT22;48463;43.604;3.872;2023-07-29T02:34:57;23.30;99.90
62424;DHT22;48463;43.604;3.872;2023-07-29T02:37:23;23.40;99.90
62424;DHT22;48463;43.604;3.872;2023-07-29T02:39:48;23.50;99.90
62424;DHT22;48463;43.604;3.872;2023-07-29T02:42:14;23.50;99.90
62424;DHT22;48463;43.604;3.872;2023-07-29T02:44:40;23.50;99.90
62424;DHT22;48463;43.604;3.872;2023-07-29T02:47:05;23.60;99.90
62424;DHT22;48463;43.604;3.872;2023-07-29T02:49:31;23.60;99.90
62424;DHT22;48463;43.604;3.872;2023-07-29T02:51:57;23.70;99.90
62424;DHT22;48463;43.604;3.872;2023-07-29T02:54:22;23.70;99.90
62424;DHT22;48463;43.604;3.872;2023-07-29T02:56:49;23.70;99.90
62424;DHT22;48463;43.604;3.872;2023-07-29T02:59:15;23.80;99.90
62424;DHT22;48463;43.604;3.872;2023-07-29T03:01:40;23.70;99.90
62424;DHT22;48463;43.604;3.872;2023-07-29T03:04:06;23.70;99.90
62424;DHT22;48463;43.604;3.872;2023-07-29T03:06:31;23.70;99.90
62424;DHT22;48463;43.604;3.872;2023-07-29T03:08:57;23.70;99.90
62424;DHT22;48463;43.604;3.872;2023-07-29T03:11:23;23.50;99.90
62424;DHT22;48463;43.604;3.872;2023-07-29T03:13:48;23.50;99.90
62424;DHT22;48463;43.604;3.872;2023-07-29T03:16:17;23.40;99.90
62424;DHT22;48463;43.604;3.872;2023-07-29T03:18:44;23.40;99.90
62424;DHT22;48463;43.604;3.872;2023-07-29T03:21:11;23.40;99.90
62424;DHT22;48463;43.604;3.872;2023-07-29T03:23:38;23.50;99.90
62424;DHT22;48463;43.604;3.872;2023-07-29T03:26:04;23.60;99.90
62424;DHT22;48463;43.604;3.872;2023-07-29T03:28:42;23.60;99.90
62424;DHT22;48463;43.604;3.872;2023-07-29T03:31:08;23.60;99.90
62424;DHT22;48463;43.604;3.872;2023-07-29T03:33:34;23.50;99.90
62424;DHT22;48463;43.604;3.872;2023-07-29T03:36:00;23.50;99.90
62424;DHT22;48463;43.604;3.872;2023-07-29T03:38:26;23.50;99.90
62424;DHT22;48463;43.604;3.872;2023-07-29T03:40:51;23.50;99.90
62424;DHT22;48463;43.604;3.872;2023-07-29T03:43:18;23.50;99.90
62424;DHT22;48463;43.604;3.872;2023-07-29T03:45:44;23.50;99.90
62424;DHT22;48463;43.604;3.872;2023-07-29T03:48:10;23.50;99.90
62424;DHT22;48463;43.604;3.872;2023-07-29T03:50:36;23.40;99.90
62424;DHT22;48463;43.604;3.872;2023-07-29T03:53:05;23.30;99.90
62424;DHT22;48463;43.604;3.872;2023-07-29T03:55:31;23.30;99.90
62424;DHT22;48463;43.604;3.872;2023-07-29T03:57:58;23.40;99.90
62424;DHT22;48463;43.604;3.872;2023-07-29T04:00:24;23.30;99.90
62424;DHT22;48463;43.604;3.872;2023-07-29T04:02:50;23.40;99.90
62424;DHT22;48463;43.604;3.872;2023-07-29T04:05:16;23.30;99.90
62424;DHT22;48463;43.604;3.872;2023-07-29T04:07:42;23.30;99.90
62424;DHT22;48463;43.604;3.872;2023-07-29T04:10:07;23.40;99.90
62424;DHT22;48463;43.604;3.872;2023-07-29T04:12:33;23.40;99.90
62424;DHT22;48463;43.604;3.872;2023-07-29T04:14:59;23.40;99.90
62424;DHT22;48463;43.604;3.872;2023-07-29T04:17:24;23.30;99.90
62424;DHT22;48463;43.604;3.872;2023-07-29T04:19:50;23.20;99.90
62424;DHT22;48463;43.604;3.872;2023-07-29T04:22:16;22.90;99.90
62424;DHT22;48463;43.604;3.872;2023-07-29T04:24:42;22.90;99.90
62424;DHT22;48463;43.604;3.872;2023-07-29T04:27:08;22.80;99.90
62424;DHT22;48463;43.604;3.872;2023-07-29T04:29:33;22.70;99.90
62424;DHT22;48463;43.604;3.872;2023-07-29T04:32:04;22.80;99.90
62424;DHT22;48463;43.604;3.872;2023-07-29T04:34:30;22.80;99.90
62424;DHT22;48463;43.604;3.872;2023-07-29T04:36:56;22.90;99.90
62424;DHT22;48463;43.604;3.872;2023-07-29T04:39:21;23.00;99.90
62424;DHT22;48463;43.604;3.872;2023-07-29T04:41:47;23.00;99.90
62424;DHT22;48463;43.604;3.872;2023-07-29T04:44:12;23.00;99.90
62424;DHT22;48463;43.604;3.872;2023-07-29T04:46:38;23.00;99.90
62424;DHT22;48463;43.604;3.872;2023-07-29T04:49:04;23.00;99.90
62424;DHT22;48463;43.604;3.872;2023-07-29T04:51:30;22.80;99.90
62424;DHT22;48463;43.604;3.872;2023-07-29T04:53:57;22.60;99.90
62424;DHT22;48463;43.604;3.872;2023-07-29T04:56:23;22.60;99.90
62424;DHT22;48463;43.604;3.872;2023-07-29T04:58:48;22.60;99.90
62424;DHT22;48463;43.604;3.872;2023-07-29T05:01:14;22.50;99.90
62424;DHT22;48463;43.604;3.872;2023-07-29T05:03:40;22.50;99.90
62424;DHT22;48463;43.604;3.872;2023-07-29T05:06:05;22.70;99.90
62424;DHT22;48463;43.604;3.872;2023-07-29T05:08:32;22.90;99.90
62424;DHT22;48463;43.604;3.872;2023-07-29T05:10:58;23.00;99.90
62424;DHT22;48463;43.604;3.872;2023-07-29T05:13:24;23.10;99.90
62424;DHT22;48463;43.604;3.872;2023-07-29T05:15:50;22.90;99.90
62424;DHT22;48463;43.604;3.872;2023-07-29T05:18:16;22.80;99.90
62424;DHT22;48463;43.604;3.872;2023-07-29T05:20:42;22.70;99.90
62424;DHT22;48463;43.604;3.872;2023-07-29T05:23:08;22.70;99.90
62424;DHT22;48463;43.604;3.872;2023-07-29T05:25:33;22.80;99.90
62424;DHT22;48463;43.604;3.872;2023-07-29T05:28:02;22.90;99.90
62424;DHT22;48463;43.604;3.872;2023-07-29T05:30:29;22.90;99.90
62424;DHT22;48463;43.604;3.872;2023-07-29T05:32:57;22.80;99.90
62424;DHT22;48463;43.604;3.872;2023-07-29T05:35:23;22.90;99.90
62424;DHT22;48463;43.604;3.872;2023-07-29T05:37:49;22.80;99.90
62424;DHT22;48463;43.604;3.872;2023-07-29T05:40:14;23.00;99.90
62424;DHT22;48463;43.604;3.872;2023-07-29T05:42:40;22.80;99.90
62424;DHT22;48463;43.604;3.872;2023-07-29T05:45:07;22.90;99.90
62424;DHT22;48463;43.604;3.872;2023-07-29T05:47:33;23.10;99.90
62424;DHT22;48463;43.604;3.872;2023-07-29T05:49:59;23.20;99.90
62424;DHT22;48463;43.604;3.872;2023-07-29T05:52:27;23.30;99.90
62424;DHT22;48463;43.604;3.872;2023-07-29T05:54:53;23.30;99.90
62424;DHT22;48463;43.604;3.872;2023-07-29T05:57:18;23.20;99.90
62424;DHT22;48463;43.604;3.872;2023-07-29T05:59:44;23.30;99.90
62424;DHT22;48463;43.604;3.872;2023-07-29T06:02:09;23.40;99.90
62424;DHT22;48463;43.604;3.872;2023-07-29T06:04:35;23.30;99.90
62424;DHT22;48463;43.604;3.872;2023-07-29T06:07:01;23.30;99.90
62424;DHT22;48463;43.604;3.872;2023-07-29T06:09:26;23.40;99.90
62424;DHT22;48463;43.604;3.872;2023-07-29T06:11:52;23.60;99.90
62424;DHT22;48463;43.604;3.872;2023-07-29T06:14:18;23.50;99.90
62424;DHT22;48463;43.604;3.872;2023-07-29T06:16:43;23.60;99.90
62424;DHT22;48463;43.604;3.872;2023-07-29T06:19:09;23.70;99.90
62424;DHT22;48463;43.604;3.872;2023-07-29T06:21:35;23.80;99.90
62424;DHT22;48463;43.604;3.872;2023-07-29T06:24:02;23.80;99.90
62424;DHT22;48463;43.604;3.872;2023-07-29T06:26:28;24.00;99.90
62424;DHT22;48463;43.604;3.872;2023-07-29T06:28:54;24.00;99.90
62424;DHT22;48463;43.604;3.872;2023-07-29T06:31:19;24.00;99.90
62424;DHT22;48463;43.604;3.872;2023-07-29T06:33:46;24.10;99.90
62424;DHT22;48463;43.604;3.872;2023-07-29T06:36:11;24.20;99.90
62424;DHT22;48463;43.604;3.872;2023-07-29T06:38:37;24.20;99.90
62424;DHT22;48463;43.604;3.872;2023-07-29T06:41:05;24.10;99.90
62424;DHT22;48463;43.604;3.872;2023-07-29T06:43:31;24.00;99.90
62424;DHT22;48463;43.604;3.872;2023-07-29T06:45:56;24.00;99.90
62424;DHT22;48463;43.604;3.872;2023-07-29T06:48:22;24.00;99.90
62424;DHT22;48463;43.604;3.872;2023-07-29T06:50:49;24.10;99.90
62424;DHT22;48463;43.604;3.872;2023-07-29T06:53:16;24.20;99.90
62424;DHT22;48463;43.604;3.872;2023-07-29T06:55:42;23.90;99.90
62424;DHT22;48463;43.604;3.872;2023-07-29T06:58:08;24.20;99.90
62424;DHT22;48463;43.604;3.872;2023-07-29T07:00:33;24.30;99.90
62424;DHT22;48463;43.604;3.872;2023-07-29T07:02:59;24.40;99.90
62424;DHT22;48463;43.604;3.872;2023-07-29T07:05:25;24.50;99.90
62424;DHT22;48463;43.604;3.872;2023-07-29T07:07:51;24.30;99.90
62424;DHT22;48463;43.604;3.872;2023-07-29T07:10:16;24.30;99.90
62424;DHT22;48463;43.604;3.872;2023-07-29T07:12:42;24.60;99.90
62424;DHT22;48463;43.604;3.872;2023-07-29T07:15:08;24.70;99.90
62424;DHT22;48463;43.604;3.872;2023-07-29T07:17:34;24.80;99.90
62424;DHT22;48463;43.604;3.872;2023-07-29T07:19:59;24.70;99.90
62424;DHT22;48463;43.604;3.872;2023-07-29T07:22:25;24.60;99.90
62424;DHT22;48463;43.604;3.872;2023-07-29T07:24:51;24.70;99.90
62424;DHT22;48463;43.604;3.872;2023-07-29T07:27:17;24.90;99.90
62424;DHT22;48463;43.604;3.872;2023-07-29T07:29:42;25.00;99.90
62424;DHT22;48463;43.604;3.872;2023-07-29T07:32:08;25.20;99.90
62424;DHT22;48463;43.604;3.872;2023-07-29T07:34:34;25.10;99.90
62424;DHT22;48463;43.604;3.872;2023-07-29T07:37:00;25.20;99.90
62424;DHT22;48463;43.604;3.872;2023-07-29T07:39:26;25.30;99.90
62424;DHT22;48463;43.604;3.872;2023-07-29T07:41:52;25.50;99.90
62424;DHT22;48463;43.604;3.872;2023-07-29T07:44:17;25.70;99.90
62424;DHT22;48463;43.604;3.872;2023-07-29T07:46:45;25.80;99.90
62424;DHT22;48463;43.604;3.872;2023-07-29T07:49:10;25.70;99.90
62424;DHT22;48463;43.604;3.872;2023-07-29T07:51:36;25.80;99.90
62424;DHT22;48463;43.604;3.872;2023-07-29T07:54:02;25.80;99.90
62424;DHT22;48463;43.604;3.872;2023-07-29T07:56:27;25.40;99.90
62424;DHT22;48463;43.604;3.872;2023-07-29T07:58:53;25.50;99.90
62424;DHT22;48463;43.604;3.872;2023-07-29T08:01:19;25.50;99.90
62424;DHT22;48463;43.604;3.872;2023-07-29T08:03:45;25.70;99.90
62424;DHT22;48463;43.604;3.872;2023-07-29T08:06:10;25.70;99.90
62424;DHT22;48463;43.604;3.872;2023-07-29T08:08:36;25.80;99.90
62424;DHT22;48463;43.604;3.872;2023-07-29T08:11:02;25.80;99.90
62424;DHT22;48463;43.604;3.872;2023-07-29T08:13:28;25.80;99.90
62424;DHT22;48463;43.604;3.872;2023-07-29T08:15:54;26.00;99.90
62424;DHT22;48463;43.604;3.872;2023-07-29T08:18:20;26.20;99.90
62424;DHT22;48463;43.604;3.872;2023-07-29T08:23:27;26.30;99.90
62424;DHT22;48463;43.604;3.872;2023-07-29T08:25:57;26.30;99.90
62424;DHT22;48463;43.604;3.872;2023-07-29T08:28:37;26.20;99.90
62424;DHT22;48463;43.604;3.872;2023-07-29T08:31:03;26.00;99.90
62424;DHT22;48463;43.604;3.872;2023-07-29T08:33:29;26.10;99.90
62424;DHT22;48463;43.604;3.872;2023-07-29T08:35:55;26.10;99.90
62424;DHT22;48463;43.604;3.872;2023-07-29T08:38:22;26.10;99.90
62424;DHT22;48463;43.604;3.872;2023-07-29T08:41:08;26.30;99.90
62424;DHT22;48463;43.604;3.872;2023-07-29T08:43:38;26.20;99.90
62424;DHT22;48463;43.604;3.872;2023-07-29T08:46:04;26.70;99.90
62424;DHT22;48463;43.604;3.872;2023-07-29T08:48:39;26.90;99.90
62424;DHT22;48463;43.604;3.872;2023-07-29T08:51:08;26.90;99.90
62424;DHT22;48463;43.604;3.872;2023-07-29T08:53:35;27.10;99.90
62424;DHT22;48463;43.604;3.872;2023-07-29T08:56:01;27.30;99.90
62424;DHT22;48463;43.604;3.872;2023-07-29T08:58:27;27.30;99.90
62424;DHT22;48463;43.604;3.872;2023-07-29T09:00:53;27.30;99.90
62424;DHT22;48463;43.604;3.872;2023-07-29T09:03:20;26.80;99.90
62424;DHT22;48463;43.604;3.872;2023-07-29T09:05:47;26.90;99.90
62424;DHT22;48463;43.604;3.872;2023-07-29T09:08:14;27.00;99.90
62424;DHT22;48463;43.604;3.872;2023-07-29T09:10:40;27.30;99.90
62424;DHT22;48463;43.604;3.872;2023-07-29T09:13:06;27.40;99.90
62424;DHT22;48463;43.604;3.872;2023-07-29T09:15:34;27.50;99.90
62424;DHT22;48463;43.604;3.872;2023-07-29T09:18:11;27.50;99.90
62424;DHT22;48463;43.604;3.872;2023-07-29T09:20:38;27.40;99.90
62424;DHT22;48463;43.604;3.872;2023-07-29T09:23:07;27.70;99.90
62424;DHT22;48463;43.604;3.872;2023-07-29T09:25:34;27.60;99.90
62424;DHT22;48463;43.604;3.872;2023-07-29T09:28:11;27.40;99.90
62424;DHT22;48463;43.604;3.872;2023-07-29T09:30:39;27.30;99.90
62424;DHT22;48463;43.604;3.872;2023-07-29T09:33:06;27.40;99.90
62424;DHT22;48463;43.604;3.872;2023-07-29T09:35:34;27.40;99.90
62424;DHT22;48463;43.604;3.872;2023-07-29T09:38:05;27.40;99.90
62424;DHT22;48463;43.604;3.872;2023-07-29T09:40:39;27.60;99.90
62424;DHT22;48463;43.604;3.872;2023-07-29T09:43:09;27.70;99.90
62424;DHT22;48463;43.604;3.872;2023-07-29T09:45:36;27.90;99.90
62424;DHT22;48463;43.604;3.872;2023-07-29T09:48:03;28.10;99.90
62424;DHT22;48463;43.604;3.872;2023-07-29T09:50:30;28.00;99.90
62424;DHT22;48463;43.604;3.872;2023-07-29T09:52:58;28.10;99.90
62424;DHT22;48463;43.604;3.872;2023-07-29T09:55:25;28.30;99.90
62424;DHT22;48463;43.604;3.872;2023-07-29T09:58:01;28.50;99.90
62424;DHT22;48463;43.604;3.872;2023-07-29T10:00:32;28.40;99.90
62424;DHT22;48463;43.604;3.872;2023-07-29T10:02:58;28.30;99.90
62424;DHT22;48463;43.604;3.872;2023-07-29T10:05:28;28.30;99.90
62424;DHT22;48463;43.604;3.872;2023-07-29T10:07:56;28.40;99.90
62424;DHT22;48463;43.604;3.872;2023-07-29T10:10:24;28.30;99.90
62424;DHT22;48463;43.604;3.872;2023-07-29T10:12:50;28.30;99.90
62424;DHT22;48463;43.604;3.872;2023-07-29T10:15:17;28.30;99.90
62424;DHT22;48463;43.604;3.872;2023-07-29T10:17:46;28.20;99.90
62424;DHT22;48463;43.604;3.872;2023-07-29T10:20:11;28.20;99.90
62424;DHT22;48463;43.604;3.872;2023-07-29T10:22:40;28.20;99.90
62424;DHT22;48463;43.604;3.872;2023-07-29T10:25:22;28.40;99.90
62424;DHT22;48463;43.604;3.872;2023-07-29T10:28:00;28.60;99.90
62424;DHT22;48463;43.604;3.872;2023-07-29T10:30:28;28.60;99.90
62424;DHT22;48463;43.604;3.872;2023-07-29T10:32:55;28.30;99.90
62424;DHT22;48463;43.604;3.872;2023-07-29T10:35:23;28.20;99.90
62424;DHT22;48463;43.604;3.872;2023-07-29T10:37:50;28.30;99.90
62424;DHT22;48463;43.604;3.872;2023-07-29T10:40:18;28.60;99.90
62424;DHT22;48463;43.604;3.872;2023-07-29T10:45:40;28.40;99.90
62424;DHT22;48463;43.604;3.872;2023-07-29T10:54:11;28.40;99.90
62424;DHT22;48463;43.604;3.872;2023-07-29T10:56:47;28.70;99.90
62424;DHT22;48463;43.604;3.872;2023-07-29T11:01:39;28.70;99.90
62424;DHT22;48463;43.604;3.872;2023-07-29T11:15:12;28.70;99.90
62424;DHT22;48463;43.604;3.872;2023-07-29T11:17:52;28.50;99.90
62424;DHT22;48463;43.604;3.872;2023-07-29T11:20:21;28.50;99.90
62424;DHT22;48463;43.604;3.872;2023-07-29T11:22:48;28.50;99.90
62424;DHT22;48463;43.604;3.872;2023-07-29T11:25:16;28.60;99.90
62424;DHT22;48463;43.604;3.872;2023-07-29T11:27:43;28.70;99.90
62424;DHT22;48463;43.604;3.872;2023-07-29T11:30:11;28.80;99.90
62424;DHT22;48463;43.604;3.872;2023-07-29T11:32:39;29.30;99.90
62424;DHT22;48463;43.604;3.872;2023-07-29T11:35:07;29.00;99.90
62424;DHT22;48463;43.604;3.872;2023-07-29T11:37:35;29.20;99.90
62424;DHT22;48463;43.604;3.872;2023-07-29T11:40:01;29.60;99.90
62424;DHT22;48463;43.604;3.872;2023-07-29T11:42:28;29.40;99.90
62424;DHT22;48463;43.604;3.872;2023-07-29T11:44:57;29.50;99.90
62424;DHT22;48463;43.604;3.872;2023-07-29T11:47:24;29.10;99.90
62424;DHT22;48463;43.604;3.872;2023-07-29T11:49:51;29.10;99.90
62424;DHT22;48463;43.604;3.872;2023-07-29T11:52:18;29.30;99.90
62424;DHT22;48463;43.604;3.872;2023-07-29T11:54:48;29.50;99.90
62424;DHT22;48463;43.604;3.872;2023-07-29T11:57:16;29.20;99.90
62424;DHT22;48463;43.604;3.872;2023-07-29T11:59:42;29.40;99.90
62424;DHT22;48463;43.604;3.872;2023-07-29T12:02:16;29.50;99.90
62424;DHT22;48463;43.604;3.872;2023-07-29T12:04:43;29.60;99.90
62424;DHT22;48463;43.604;3.872;2023-07-29T12:07:09;29.50;99.90
62424;DHT22;48463;43.604;3.872;2023-07-29T12:09:36;29.40;99.90
62424;DHT22;48463;43.604;3.872;2023-07-29T12:12:05;29.50;99.90
62424;DHT22;48463;43.604;3.872;2023-07-29T12:14:34;29.60;99.90
62424;DHT22;48463;43.604;3.872;2023-07-29T12:17:02;29.30;99.90
62424;DHT22;48463;43.604;3.872;2023-07-29T12:19:38;29.20;99.90
62424;DHT22;48463;43.604;3.872;2023-07-29T12:22:09;28.80;99.90
62424;DHT22;48463;43.604;3.872;2023-07-29T12:24:40;28.80;99.90
62424;DHT22;48463;43.604;3.872;2023-07-29T12:27:11;29.00;99.90
62424;DHT22;48463;43.604;3.872;2023-07-29T12:29:51;29.10;99.90
62424;DHT22;48463;43.604;3.872;2023-07-29T12:32:17;28.90;99.90
62424;DHT22;48463;43.604;3.872;2023-07-29T12:34:43;29.20;99.90
62424;DHT22;48463;43.604;3.872;2023-07-29T12:37:08;29.00;99.90
62424;DHT22;48463;43.604;3.872;2023-07-29T12:39:39;29.50;99.90
62424;DHT22;48463;43.604;3.872;2023-07-29T12:42:05;29.50;99.90
62424;DHT22;48463;43.604;3.872;2023-07-29T12:44:33;29.40;99.90
62424;DHT22;48463;43.604;3.872;2023-07-29T12:47:04;29.40;99.90
62424;DHT22;48463;43.604;3.872;2023-07-29T12:49:30;29.20;99.90
62424;DHT22;48463;43.604;3.872;2023-07-29T12:51:59;29.40;99.90
62424;DHT22;48463;43.604;3.872;2023-07-29T12:54:25;29.30;99.90
62424;DHT22;48463;43.604;3.872;2023-07-29T12:56:52;29.10;99.90
62424;DHT22;48463;43.604;3.872;2023-07-29T12:59:17;29.10;99.90
62424;DHT22;48463;43.604;3.872;2023-07-29T13:01:43;28.90;99.90
62424;DHT22;48463;43.604;3.872;2023-07-29T13:04:10;28.70;99.90
62424;DHT22;48463;43.604;3.872;2023-07-29T13:06:35;29.10;99.90
62424;DHT22;48463;43.604;3.872;2023-07-29T13:09:01;29.10;99.90
62424;DHT22;48463;43.604;3.872;2023-07-29T13:11:27;29.00;99.90
62424;DHT22;48463;43.604;3.872;2023-07-29T13:13:52;29.30;99.90
62424;DHT22;48463;43.604;3.872;2023-07-29T13:16:18;29.70;99.90
62424;DHT22;48463;43.604;3.872;2023-07-29T13:18:44;29.90;99.90
62424;DHT22;48463;43.604;3.872;2023-07-29T13:21:10;29.90;99.90
62424;DHT22;48463;43.604;3.872;2023-07-29T13:23:37;30.00;99.90
62424;DHT22;48463;43.604;3.872;2023-07-29T13:26:02;30.00;99.90
62424;DHT22;48463;43.604;3.872;2023-07-29T13:28:28;30.20;99.90
62424;DHT22;48463;43.604;3.872;2023-07-29T13:30:54;30.00;99.90
62424;DHT22;48463;43.604;3.872;2023-07-29T13:33:25;30.10;99.90
62424;DHT22;48463;43.604;3.872;2023-07-29T13:35:51;30.20;99.90
62424;DHT22;48463;43.604;3.872;2023-07-29T13:38:18;30.00;99.90
62424;DHT22;48463;43.604;3.872;2023-07-29T13:40:45;30.40;99.90
62424;DHT22;48463;43.604;3.872;2023-07-29T13:43:11;30.20;99.90
62424;DHT22;48463;43.604;3.872;2023-07-29T13:45:38;30.10;99.90
62424;DHT22;48463;43.604;3.872;2023-07-29T13:48:04;30.30;99.90
62424;DHT22;48463;43.604;3.872;2023-07-29T13:50:29;30.40;99.90
62424;DHT22;48463;43.604;3.872;2023-07-29T13:52:55;30.50;99.90
62424;DHT22;48463;43.604;3.872;2023-07-29T13:55:21;30.50;99.90
62424;DHT22;48463;43.604;3.872;2023-07-29T13:57:47;30.60;99.90
62424;DHT22;48463;43.604;3.872;2023-07-29T14:00:13;30.30;99.90
62424;DHT22;48463;43.604;3.872;2023-07-29T14:02:39;30.30;99.90
62424;DHT22;48463;43.604;3.872;2023-07-29T14:05:06;30.10;99.90
62424;DHT22;48463;43.604;3.872;2023-07-29T14:07:32;30.40;99.90
62424;DHT22;48463;43.604;3.872;2023-07-29T14:09:58;30.60;99.90
62424;DHT22;48463;43.604;3.872;2023-07-29T14:12:25;30.70;99.90
62424;DHT22;48463;43.604;3.872;2023-07-29T14:14:52;31.00;99.90
62424;DHT22;48463;43.604;3.872;2023-07-29T14:17:19;30.70;99.90
62424;DHT22;48463;43.604;3.872;2023-07-29T14:19:44;30.40;99.90
62424;DHT22;48463;43.604;3.872;2023-07-29T14:22:10;30.30;99.90
62424;DHT22;48463;43.604;3.872;2023-07-29T14:24:36;30.60;99.90
62424;DHT22;48463;43.604;3.872;2023-07-29T14:27:02;30.50;99.90
62424;DHT22;48463;43.604;3.872;2023-07-29T14:29:28;31.10;99.90
62424;DHT22;48463;43.604;3.872;2023-07-29T14:31:54;30.50;99.90
62424;DHT22;48463;43.604;3.872;2023-07-29T14:34:19;30.60;99.90
62424;DHT22;48463;43.604;3.872;2023-07-29T14:36:45;30.00;99.90
62424;DHT22;48463;43.604;3.872;2023-07-29T14:39:11;30.30;99.90
62424;DHT22;48463;43.604;3.872;2023-07-29T14:41:37;30.50;99.90
62424;DHT22;48463;43.604;3.872;2023-07-29T14:44:02;30.60;99.90
62424;DHT22;48463;43.604;3.872;2023-07-29T14:46:28;30.90;99.90
62424;DHT22;48463;43.604;3.872;2023-07-29T14:48:53;31.30;99.90
62424;DHT22;48463;43.604;3.872;2023-07-29T14:51:19;30.80;99.90
62424;DHT22;48463;43.604;3.872;2023-07-29T14:53:46;31.30;99.90
62424;DHT22;48463;43.604;3.872;2023-07-29T14:56:12;31.80;99.90
62424;DHT22;48463;43.604;3.872;2023-07-29T14:58:40;32.30;99.90
62424;DHT22;48463;43.604;3.872;2023-07-29T15:01:07;33.60;99.90
62424;DHT22;48463;43.604;3.872;2023-07-29T15:03:34;33.10;99.90
62424;DHT22;48463;43.604;3.872;2023-07-29T15:06:00;32.60;99.90
62424;DHT22;48463;43.604;3.872;2023-07-29T15:08:28;32.30;99.90
62424;DHT22;48463;43.604;3.872;2023-07-29T15:10:54;31.80;99.90
62424;DHT22;48463;43.604;3.872;2023-07-29T15:13:20;31.90;99.90
62424;DHT22;48463;43.604;3.872;2023-07-29T15:15:45;33.30;99.90
62424;DHT22;48463;43.604;3.872;2023-07-29T15:18:11;33.40;99.90
62424;DHT22;48463;43.604;3.872;2023-07-29T15:20:37;36.00;99.90
62424;DHT22;48463;43.604;3.872;2023-07-29T15:23:03;34.50;99.90
62424;DHT22;48463;43.604;3.872;2023-07-29T15:25:28;33.00;99.90
62424;DHT22;48463;43.604;3.872;2023-07-29T15:27:54;31.90;99.90
62424;DHT22;48463;43.604;3.872;2023-07-29T15:30:28;31.70;99.90
62424;DHT22;48463;43.604;3.872;2023-07-29T15:32:54;30.70;99.90
62424;DHT22;48463;43.604;3.872;2023-07-29T15:35:22;30.30;99.90
62424;DHT22;48463;43.604;3.872;2023-07-29T15:37:47;29.80;99.90
62424;DHT22;48463;43.604;3.872;2023-07-29T15:40:13;29.80;99.90
62424;DHT22;48463;43.604;3.872;2023-07-29T15:42:39;29.90;99.90
62424;DHT22;48463;43.604;3.872;2023-07-29T15:45:06;29.80;99.90
62424;DHT22;48463;43.604;3.872;2023-07-29T15:47:32;28.90;99.90
62424;DHT22;48463;43.604;3.872;2023-07-29T15:49:57;28.90;99.90
62424;DHT22;48463;43.604;3.872;2023-07-29T15:52:23;29.20;99.90
62424;DHT22;48463;43.604;3.872;2023-07-29T15:54:51;29.20;99.90
62424;DHT22;48463;43.604;3.872;2023-07-29T15:57:17;29.50;99.90
62424;DHT22;48463;43.604;3.872;2023-07-29T15:59:43;29.20;99.90